sensor_id;sensor_type;location;lat;lon;timestamp;pressure;altitude;pressure_sealevel;temperature;humidity
51359;BME280;37448;51.588;7.248;2024-03-23T00:52:21;100305.34;;;7.17;100.00
51359;BME280;37448;51.588;7.248;2024-03-23T00:54:21;100309.69;;;7.20;100.00
51359;BME280;37448;51.588;7.248;2024-03-23T00:56:21;100301.06;;;7.12;100.00
51359;BME280;37448;51.588;7.248;2024-03-23T00:58:22;100298.50;;;7.12;100.00
51359;BME280;37448;51.588;7.248;2024-03-23T01:00:22;100303.69;;;7.10;100.00
51359;BME280;37448;51.588;7.248;2024-03-23T01:02:22;100293.34;;;7.09;100.00
51359;BME280;37448;51.588;7.248;2024-03-23T01:04:23;100299.38;;;7.08;100.00
51359;BME280;37448;51.588;7.248;2024-03-23T01:06:23;100293.38;;;7.02;100.00
51359;BME280;37448;51.588;7.248;2024-03-23T01:08:23;100285.56;;;7.09;100.00
51359;BME280;37448;51.588;7.248;2024-03-23T01:10:24;100278.66;;;7.08;100.00
51359;BME280;37448;51.588;7.248;2024-03-23T01:12:24;100281.28;;;7.06;100.00
51359;BME280;37448;51.588;7.248;2024-03-23T01:14:24;100279.56;;;7.00;100.00
51359;BME280;37448;51.588;7.248;2024-03-23T01:16:25;100278.75;;;6.95;100.00
51359;BME280;37448;51.588;7.248;2024-03-23T01:18:25;100280.41;;;7.06;100.00
51359;BME280;37448;51.588;7.248;2024-03-23T01:20:26;100288.22;;;7.02;100.00
51359;BME280;37448;51.588;7.248;2024-03-23T01:22:27;100283.03;;;7.04;100.00
51359;BME280;37448;51.588;7.248;2024-03-23T01:24:28;100273.53;;;7.01;100.00
51359;BME280;37448;51.588;7.248;2024-03-23T01:26:28;100269.19;;;7.02;100.00
51359;BME280;37448;51.588;7.248;2024-03-23T01:28:28;100273.53;;;7.01;100.00
51359;BME280;37448;51.588;7.248;2024-03-23T01:30:29;100272.63;;;7.06;100.00
51359;BME280;37448;51.588;7.248;2024-03-23T01:32:30;100272.63;;;7.06;100.00
51359;BME280;37448;51.588;7.248;2024-03-23T01:34:30;100272.63;;;7.06;100.00
51359;BME280;37448;51.588;7.248;2024-03-23T01:36:31;100261.41;;;7.05;100.00
51359;BME280;37448;51.588;7.248;2024-03-23T01:38:31;100258.81;;;7.02;100.00
51359;BME280;37448;51.588;7.248;2024-03-23T01:40:32;100269.19;;;7.05;100.00
51359;BME280;37448;51.588;7.248;2024-03-23T01:42:32;100252.72;;;7.08;100.00
51359;BME280;37448;51.588;7.248;2024-03-23T01:44:32;100251.88;;;7.07;100.00
51359;BME280;37448;51.588;7.248;2024-03-23T01:46:33;100253.63;;;7.03;100.00
51359;BME280;37448;51.588;7.248;2024-03-23T01:48:34;100259.69;;;7.02;100.00
51359;BME280;37448;51.588;7.248;2024-03-23T01:50:34;100264.03;;;6.96;100.00
51359;BME280;37448;51.588;7.248;2024-03-23T01:52:35;100260.59;;;6.94;100.00
51359;BME280;37448;51.588;7.248;2024-03-23T01:54:35;100259.75;;;6.93;100.00
51359;BME280;37448;51.588;7.248;2024-03-23T01:56:36;100253.78;;;6.82;100.00
51359;BME280;37448;51.588;7.248;2024-03-23T01:58:37;100246.88;;;6.82;100.00
51359;BME280;37448;51.588;7.248;2024-03-23T02:00:37;100228.72;;;6.81;100.00
51359;BME280;37448;51.588;7.248;2024-03-23T02:02:42;100219.34;;;6.66;100.00
51359;BME280;37448;51.588;7.248;2024-03-23T02:04:43;100213.31;;;6.65;100.00
51359;BME280;37448;51.588;7.248;2024-03-23T02:06:43;100212.50;;;6.62;100.00
51359;BME280;37448;51.588;7.248;2024-03-23T02:08:44;100211.66;;;6.55;100.00
51359;BME280;37448;51.588;7.248;2024-03-23T02:10:44;100219.41;;;6.58;100.00
51359;BME280;37448;51.588;7.248;2024-03-23T02:12:44;100212.50;;;6.62;100.00
51359;BME280;37448;51.588;7.248;2024-03-23T02:14:45;100214.19;;;6.61;100.00
51359;BME280;37448;51.588;7.248;2024-03-23T02:16:45;100213.34;;;6.59;100.00
51359;BME280;37448;51.588;7.248;2024-03-23T02:18:47;100218.53;;;6.59;100.00
51359;BME280;37448;51.588;7.248;2024-03-23T02:20:47;100224.59;;;6.59;100.00
51359;BME280;37448;51.588;7.248;2024-03-23T02:22:51;100211.63;;;6.58;100.00
51359;BME280;37448;51.588;7.248;2024-03-23T02:24:51;100213.34;;;6.59;100.00
51359;BME280;37448;51.588;7.248;2024-03-23T02:26:51;100215.06;;;6.60;100.00
51359;BME280;37448;51.588;7.248;2024-03-23T02:28:52;100208.19;;;6.59;100.00
51359;BME280;37448;51.588;7.248;2024-03-23T02:30:52;100213.31;;;6.62;100.00
51359;BME280;37448;51.588;7.248;2024-03-23T02:32:52;100217.66;;;6.60;100.00
51359;BME280;37448;51.588;7.248;2024-03-23T02:34:52;100207.34;;;6.54;100.00
51359;BME280;37448;51.588;7.248;2024-03-23T02:36:53;100213.34;;;6.59;100.00
51359;BME280;37448;51.588;7.248;2024-03-23T02:38:53;100215.94;;;6.59;100.00
51359;BME280;37448;51.588;7.248;2024-03-23T02:40:53;100215.97;;;6.57;100.00
51359;BME280;37448;51.588;7.248;2024-03-23T02:42:54;100219.38;;;6.61;100.00
51359;BME280;37448;51.588;7.248;2024-03-23T02:44:54;100223.72;;;6.59;100.00
51359;BME280;37448;51.588;7.248;2024-03-23T02:46:55;100220.22;;;6.63;100.00
51359;BME280;37448;51.588;7.248;2024-03-23T02:48:55;100218.53;;;6.59;100.00
51359;BME280;37448;51.588;7.248;2024-03-23T02:50:56;100204.78;;;6.54;100.00
51359;BME280;37448;51.588;7.248;2024-03-23T02:52:57;100196.16;;;6.52;100.00
51359;BME280;37448;51.588;7.248;2024-03-23T02:54:57;100194.44;;;6.51;100.00
51359;BME280;37448;51.588;7.248;2024-03-23T02:56:57;100195.28;;;6.51;100.00
51359;BME280;37448;51.588;7.248;2024-03-23T02:58:58;100188.44;;;6.44;100.00
51359;BME280;37448;51.588;7.248;2024-03-23T03:00:58;100190.13;;;6.50;100.00
51359;BME280;37448;51.588;7.248;2024-03-23T03:02:58;100182.41;;;6.43;100.00
51359;BME280;37448;51.588;7.248;2024-03-23T03:04:59;100192.78;;;6.43;100.00
51359;BME280;37448;51.588;7.248;2024-03-23T03:07:00;100201.38;;;6.45;100.00
51359;BME280;37448;51.588;7.248;2024-03-23T03:09:00;100200.47;;;6.51;100.00
51359;BME280;37448;51.588;7.248;2024-03-23T03:11:00;100208.28;;;6.46;100.00
51359;BME280;37448;51.588;7.248;2024-03-23T03:13:01;100219.50;;;6.44;100.00
51359;BME280;37448;51.588;7.248;2024-03-23T03:15:03;100214.31;;;6.47;100.00
51359;BME280;37448;51.588;7.248;2024-03-23T03:17:03;100215.22;;;6.44;100.00
51359;BME280;37448;51.588;7.248;2024-03-23T03:19:04;100218.66;;;6.43;100.00
51359;BME280;37448;51.588;7.248;2024-03-23T03:21:04;100207.38;;;6.49;100.00
51359;BME280;37448;51.588;7.248;2024-03-23T03:23:08;100207.44;;;6.41;100.00
51359;BME280;37448;51.588;7.248;2024-03-23T03:25:09;100202.25;;;6.41;100.00
51359;BME280;37448;51.588;7.248;2024-03-23T03:27:10;100196.25;;;6.36;100.00
51359;BME280;37448;51.588;7.248;2024-03-23T03:29:10;100208.31;;;6.42;100.00
51359;BME280;37448;51.588;7.248;2024-03-23T03:31:11;100203.19;;;6.34;100.00
51359;BME280;37448;51.588;7.248;2024-03-23T03:33:12;100208.31;;;6.37;100.00
51359;BME280;37448;51.588;7.248;2024-03-23T03:35:12;100206.63;;;6.36;100.00
51359;BME280;37448;51.588;7.248;2024-03-23T03:37:12;100203.16;;;6.37;100.00
51359;BME280;37448;51.588;7.248;2024-03-23T03:39:13;100203.19;;;6.34;100.00
51359;BME280;37448;51.588;7.248;2024-03-23T03:41:13;100198.00;;;6.34;100.00
51359;BME280;37448;51.588;7.248;2024-03-23T03:43:13;100190.25;;;6.32;100.00
51359;BME280;37448;51.588;7.248;2024-03-23T03:45:14;100188.56;;;6.27;100.00
51359;BME280;37448;51.588;7.248;2024-03-23T03:47:14;100193.72;;;6.25;100.00
51359;BME280;37448;51.588;7.248;2024-03-23T03:49:14;100192.84;;;6.31;100.00
51359;BME280;37448;51.588;7.248;2024-03-23T03:51:15;100183.38;;;6.25;100.00
51359;BME280;37448;51.588;7.248;2024-03-23T03:53:16;100190.25;;;6.31;100.00
51359;BME280;37448;51.588;7.248;2024-03-23T03:55:16;100187.69;;;6.28;100.00
51359;BME280;37448;51.588;7.248;2024-03-23T03:57:16;100183.44;;;6.16;100.00
51359;BME280;37448;51.588;7.248;2024-03-23T03:59:17;100189.47;;;6.23;100.00
51359;BME280;37448;51.588;7.248;2024-03-23T04:01:17;100197.28;;;6.10;100.00
51359;BME280;37448;51.588;7.248;2024-03-23T04:03:17;100196.41;;;6.11;100.00
51359;BME280;37448;51.588;7.248;2024-03-23T04:05:18;100183.50;;;6.10;100.00
51359;BME280;37448;51.588;7.248;2024-03-23T04:07:20;100181.72;;;6.18;100.00
51359;BME280;37448;51.588;7.248;2024-03-23T04:09:22;100178.25;;;6.19;100.00
51359;BME280;37448;51.588;7.248;2024-03-23T04:11:23;100182.59;;;6.19;100.00
51359;BME280;37448;51.588;7.248;2024-03-23T04:13:26;100178.25;;;6.17;100.00
51359;BME280;37448;51.588;7.248;2024-03-23T04:15:27;100171.34;;;6.16;100.00
51359;BME280;37448;51.588;7.248;2024-03-23T04:17:27;100172.22;;;6.19;100.00
51359;BME280;37448;51.588;7.248;2024-03-23T04:19:31;100179.13;;;6.13;100.00
51359;BME280;37448;51.588;7.248;2024-03-23T04:21:32;100182.56;;;6.15;100.00
51359;BME280;37448;51.588;7.248;2024-03-23T04:23:32;100183.53;;;6.07;100.00
51359;BME280;37448;51.588;7.248;2024-03-23T04:25:33;100194.69;;;6.13;100.00
51359;BME280;37448;51.588;7.248;2024-03-23T04:27:33;100194.72;;;6.09;100.00
51359;BME280;37448;51.588;7.248;2024-03-23T04:29:33;100191.28;;;6.05;100.00
51359;BME280;37448;51.588;7.248;2024-03-23T04:31:34;100180.94;;;6.05;100.00
51359;BME280;37448;51.588;7.248;2024-03-23T04:33:35;100185.22;;;6.09;100.00
51359;BME280;37448;51.588;7.248;2024-03-23T04:35:35;100186.06;;;6.13;100.00
51359;BME280;37448;51.588;7.248;2024-03-23T04:37:36;100185.22;;;6.11;100.00
51359;BME280;37448;51.588;7.248;2024-03-23T04:39:37;100177.50;;;6.03;100.00
51359;BME280;37448;51.588;7.248;2024-03-23T04:41:37;100178.34;;;6.07;100.00
51359;BME280;37448;51.588;7.248;2024-03-23T04:43:38;100172.31;;;6.01;100.00
51359;BME280;37448;51.588;7.248;2024-03-23T04:45:38;100173.97;;;6.13;100.00
51359;BME280;37448;51.588;7.248;2024-03-23T04:47:38;100164.56;;;6.03;100.00
51359;BME280;37448;51.588;7.248;2024-03-23T04:49:39;100168.78;;;6.13;100.00
51359;BME280;37448;51.588;7.248;2024-03-23T04:51:40;100167.09;;;6.09;100.00
51359;BME280;37448;51.588;7.248;2024-03-23T04:53:45;100170.53;;;6.11;100.00
51359;BME280;37448;51.588;7.248;2024-03-23T04:55:46;100164.56;;;6.03;100.00
51359;BME280;37448;51.588;7.248;2024-03-23T04:57:46;100172.31;;;6.03;100.00
51359;BME280;37448;51.588;7.248;2024-03-23T04:59:47;100167.94;;;6.11;100.00
51359;BME280;37448;51.588;7.248;2024-03-23T05:01:47;100174.84;;;6.09;100.00
51359;BME280;37448;51.588;7.248;2024-03-23T05:03:48;100177.50;;;6.00;100.00
51359;BME280;37448;51.588;7.248;2024-03-23T05:05:49;100166.25;;;6.06;100.00
51359;BME280;37448;51.588;7.248;2024-03-23T05:07:50;100176.63;;;6.04;100.00
51359;BME280;37448;51.588;7.248;2024-03-23T05:09:50;100172.34;;;5.98;100.00
51359;BME280;37448;51.588;7.248;2024-03-23T05:11:51;100176.66;;;5.96;100.00
51359;BME280;37448;51.588;7.248;2024-03-23T05:13:53;100170.66;;;5.96;100.00
51359;BME280;37448;51.588;7.248;2024-03-23T05:15:53;100173.22;;;5.96;100.00
51359;BME280;37448;51.588;7.248;2024-03-23T05:17:54;100179.19;;;6.06;100.00
51359;BME280;37448;51.588;7.248;2024-03-23T05:19:54;100177.47;;;6.06;100.00
51359;BME280;37448;51.588;7.248;2024-03-23T05:21:55;100181.00;;;5.96;100.00
51359;BME280;37448;51.588;7.248;2024-03-23T05:23:55;100180.06;;;6.01;100.00
51359;BME280;37448;51.588;7.248;2024-03-23T05:25:55;100174.06;;;6.01;100.00
51359;BME280;37448;51.588;7.248;2024-03-23T05:27:56;100184.38;;;6.04;100.00
51359;BME280;37448;51.588;7.248;2024-03-23T05:29:56;100181.81;;;6.04;100.00
51359;BME280;37448;51.588;7.248;2024-03-23T05:31:56;100189.59;;;6.01;100.00
51359;BME280;37448;51.588;7.248;2024-03-23T05:33:57;100188.72;;;6.00;100.00
51359;BME280;37448;51.588;7.248;2024-03-23T05:35:58;100189.59;;;5.98;100.00
51359;BME280;37448;51.588;7.248;2024-03-23T05:37:59;100189.59;;;6.01;100.00
51359;BME280;37448;51.588;7.248;2024-03-23T05:40:00;100182.66;;;6.03;100.00
51359;BME280;37448;51.588;7.248;2024-03-23T05:42:00;100185.25;;;6.03;100.00
51359;BME280;37448;51.588;7.248;2024-03-23T05:44:02;100190.47;;;6.00;100.00
51359;BME280;37448;51.588;7.248;2024-03-23T05:46:02;100187.00;;;6.01;100.00
51359;BME280;37448;51.588;7.248;2024-03-23T05:48:03;100184.44;;;5.98;100.00
51359;BME280;37448;51.588;7.248;2024-03-23T05:50:04;100195.59;;;6.03;100.00
51359;BME280;37448;51.588;7.248;2024-03-23T05:52:04;100180.94;;;6.00;100.00
51359;BME280;37448;51.588;7.248;2024-03-23T05:54:04;100187.88;;;5.97;100.00
51359;BME280;37448;51.588;7.248;2024-03-23T05:56:05;100180.97;;;5.93;100.00
51359;BME280;37448;51.588;7.248;2024-03-23T05:58:06;100176.72;;;5.87;100.00
51359;BME280;37448;51.588;7.248;2024-03-23T06:00:07;100181.00;;;5.96;100.00
51359;BME280;37448;51.588;7.248;2024-03-23T06:02:15;100184.41;;;5.99;100.00
51359;BME280;37448;51.588;7.248;2024-03-23T06:04:16;100184.44;;;5.95;100.00
51359;BME280;37448;51.588;7.248;2024-03-23T06:06:16;100185.31;;;5.92;100.00
51359;BME280;37448;51.588;7.248;2024-03-23T06:08:16;100181.88;;;5.88;100.00
51359;BME280;37448;51.588;7.248;2024-03-23T06:10:17;100187.88;;;5.94;100.00
51359;BME280;37448;51.588;7.248;2024-03-23T06:12:17;100188.75;;;5.94;100.00
51359;BME280;37448;51.588;7.248;2024-03-23T06:14:17;100191.31;;;5.97;100.00
51359;BME280;37448;51.588;7.248;2024-03-23T06:16:18;100192.19;;;5.96;100.00
51359;BME280;37448;51.588;7.248;2024-03-23T06:18:23;100186.16;;;5.99;100.00
51359;BME280;37448;51.588;7.248;2024-03-23T06:20:24;100193.06;;;5.94;100.00
51359;BME280;37448;51.588;7.248;2024-03-23T06:22:24;100186.16;;;5.96;100.00
51359;BME280;37448;51.588;7.248;2024-03-23T06:24:25;100193.06;;;5.97;100.00
51359;BME280;37448;51.588;7.248;2024-03-23T06:26:25;100196.53;;;5.96;100.00
51359;BME280;37448;51.588;7.248;2024-03-23T06:28:25;100204.25;;;5.99;100.00
51359;BME280;37448;51.588;7.248;2024-03-23T06:30:26;100196.50;;;5.99;100.00
51359;BME280;37448;51.588;7.248;2024-03-23T06:32:28;100199.94;;;6.01;100.00
51359;BME280;37448;51.588;7.248;2024-03-23T06:34:29;100198.22;;;6.00;100.00
51359;BME280;37448;51.588;7.248;2024-03-23T06:36:30;100199.09;;;5.99;100.00
51359;BME280;37448;51.588;7.248;2024-03-23T06:38:31;100198.22;;;5.94;100.00
51359;BME280;37448;51.588;7.248;2024-03-23T06:40:32;100203.38;;;6.03;100.00
51359;BME280;37448;51.588;7.248;2024-03-23T06:42:32;100206.78;;;6.11;100.00
51359;BME280;37448;51.588;7.248;2024-03-23T06:44:32;100205.91;;;6.14;100.00
51359;BME280;37448;51.588;7.248;2024-03-23T06:46:33;100210.19;;;6.18;100.00
51359;BME280;37448;51.588;7.248;2024-03-23T06:48:33;100203.28;;;6.22;100.00
51359;BME280;37448;51.588;7.248;2024-03-23T06:50:33;100203.28;;;6.19;100.00
51359;BME280;37448;51.588;7.248;2024-03-23T06:52:34;100204.16;;;6.21;100.00
51359;BME280;37448;51.588;7.248;2024-03-23T06:54:34;100197.16;;;6.34;100.00
51359;BME280;37448;51.588;7.248;2024-03-23T06:56:34;100208.25;;;6.50;100.00
51359;BME280;37448;51.588;7.248;2024-03-23T06:58:35;100209.06;;;6.55;100.00
51359;BME280;37448;51.588;7.248;2024-03-23T07:00:35;100212.41;;;6.72;100.00
51359;BME280;37448;51.588;7.248;2024-03-23T07:02:35;100207.91;;;6.93;100.00
51359;BME280;37448;51.588;7.248;2024-03-23T07:04:36;100207.78;;;7.09;100.00
51359;BME280;37448;51.588;7.248;2024-03-23T07:06:45;100211.00;;;7.32;100.00
51359;BME280;37448;51.588;7.248;2024-03-23T07:08:46;100215.84;;;7.64;100.00
51359;BME280;37448;51.588;7.248;2024-03-23T07:10:47;100214.09;;;7.66;100.00
51359;BME280;37448;51.588;7.248;2024-03-23T07:12:47;100212.03;;;7.91;100.00
51359;BME280;37448;51.588;7.248;2024-03-23T07:14:47;100214.53;;;7.99;100.00
51359;BME280;37448;51.588;7.248;2024-03-23T07:16:48;100213.34;;;8.22;100.00
51359;BME280;37448;51.588;7.248;2024-03-23T07:18:50;100209.56;;;8.43;100.00
51359;BME280;37448;51.588;7.248;2024-03-23T07:20:54;100210.19;;;8.59;100.00
51359;BME280;37448;51.588;7.248;2024-03-23T07:22:56;100208.13;;;8.80;100.00
51359;BME280;37448;51.588;7.248;2024-03-23T07:25:00;100208.75;;;8.94;100.00
51359;BME280;37448;51.588;7.248;2024-03-23T07:27:01;100220.22;;;8.81;95.73
51359;BME280;37448;51.588;7.248;2024-03-23T07:29:02;100218.53;;;8.80;93.94
51359;BME280;37448;51.588;7.248;2024-03-23T07:31:08;100205.09;;;9.04;90.53
51359;BME280;37448;51.588;7.248;2024-03-23T07:33:09;100209.50;;;9.48;96.65
51359;BME280;37448;51.588;7.248;2024-03-23T07:35:09;100214.44;;;9.64;98.40
51359;BME280;37448;51.588;7.248;2024-03-23T07:37:10;100211.00;;;9.61;97.06
51359;BME280;37448;51.588;7.248;2024-03-23T07:39:10;100209.31;;;9.60;95.18
51359;BME280;37448;51.588;7.248;2024-03-23T07:41:15;100207.91;;;9.41;93.17
51359;BME280;37448;51.588;7.248;2024-03-23T07:43:17;100212.66;;;9.66;97.17
51359;BME280;37448;51.588;7.248;2024-03-23T07:45:17;100206.41;;;9.74;94.49
51359;BME280;37448;51.588;7.248;2024-03-23T07:47:18;100214.53;;;10.00;98.21
51359;BME280;37448;51.588;7.248;2024-03-23T07:49:18;100211.69;;;10.11;96.28
51359;BME280;37448;51.588;7.248;2024-03-23T07:51:21;100214.00;;;10.25;92.64
51359;BME280;37448;51.588;7.248;2024-03-23T07:53:22;100216.94;;;10.48;92.87
51359;BME280;37448;51.588;7.248;2024-03-23T07:55:22;100219.34;;;10.58;92.13
51359;BME280;37448;51.588;7.248;2024-03-23T07:57:23;100211.88;;;10.79;91.16
51359;BME280;37448;51.588;7.248;2024-03-23T07:59:23;100212.47;;;10.88;91.14
51359;BME280;37448;51.588;7.248;2024-03-23T08:01:23;100217.31;;;11.04;95.50
51359;BME280;37448;51.588;7.248;2024-03-23T08:03:24;100206.78;;;10.72;90.24
51359;BME280;37448;51.588;7.248;2024-03-23T08:05:26;100210.47;;;10.65;90.22
51359;BME280;37448;51.588;7.248;2024-03-23T08:07:26;100219.97;;;10.68;90.06
51359;BME280;37448;51.588;7.248;2024-03-23T08:09:26;100216.38;;;10.72;90.71
51359;BME280;37448;51.588;7.248;2024-03-23T08:11:30;100220.91;;;10.63;91.10
51359;BME280;37448;51.588;7.248;2024-03-23T08:13:31;100220.31;;;10.14;84.90
51359;BME280;37448;51.588;7.248;2024-03-23T08:15:31;100213.41;;;10.13;87.77
51359;BME280;37448;51.588;7.248;2024-03-23T08:17:33;100217.84;;;10.08;89.61
51359;BME280;37448;51.588;7.248;2024-03-23T08:19:33;100213.84;;;9.93;89.98
51359;BME280;37448;51.588;7.248;2024-03-23T08:21:34;100216.16;;;9.63;87.70
51359;BME280;37448;51.588;7.248;2024-03-23T08:23:35;100218.97;;;9.54;86.39
51359;BME280;37448;51.588;7.248;2024-03-23T08:25:38;100215.53;;;9.52;87.09
51359;BME280;37448;51.588;7.248;2024-03-23T08:27:38;100213.47;;;9.69;87.10
51359;BME280;37448;51.588;7.248;2024-03-23T08:29:39;100219.00;;;9.95;86.36
51359;BME280;37448;51.588;7.248;2024-03-23T08:31:39;100214.25;;;10.14;88.14
51359;BME280;37448;51.588;7.248;2024-03-23T08:33:40;100207.78;;;10.32;88.21
51359;BME280;37448;51.588;7.248;2024-03-23T08:35:42;100212.00;;;10.74;91.25
51359;BME280;37448;51.588;7.248;2024-03-23T08:37:43;100209.84;;;10.90;89.38
51359;BME280;37448;51.588;7.248;2024-03-23T08:39:43;100203.72;;;10.91;87.73
51359;BME280;37448;51.588;7.248;2024-03-23T08:41:43;100206.22;;;10.96;85.48
51359;BME280;37448;51.588;7.248;2024-03-23T08:43:46;100207.59;;;11.11;84.58
51359;BME280;37448;51.588;7.248;2024-03-23T08:45:46;100202.66;;;10.98;83.68
51359;BME280;37448;51.588;7.248;2024-03-23T08:47:46;100196.56;;;10.99;81.18
51359;BME280;37448;51.588;7.248;2024-03-23T08:49:47;100201.25;;;11.19;80.69
51359;BME280;37448;51.588;7.248;2024-03-23T08:51:47;100196.72;;;11.59;87.43
51359;BME280;37448;51.588;7.248;2024-03-23T08:53:47;100204.47;;;11.62;82.12
51359;BME280;37448;51.588;7.248;2024-03-23T08:55:54;100208.56;;;11.71;80.12
51359;BME280;37448;51.588;7.248;2024-03-23T08:57:55;100206.69;;;11.45;79.49
51359;BME280;37448;51.588;7.248;2024-03-23T08:59:56;100208.78;;;11.63;82.71
51359;BME280;37448;51.588;7.248;2024-03-23T09:01:56;100187.16;;;11.27;79.55
51359;BME280;37448;51.588;7.248;2024-03-23T09:03:56;100199.47;;;11.22;83.74
51359;BME280;37448;51.588;7.248;2024-03-23T09:05:57;100194.13;;;10.93;83.57
51359;BME280;37448;51.588;7.248;2024-03-23T09:07:58;100197.78;;;10.50;80.36
51359;BME280;37448;51.588;7.248;2024-03-23T09:09:58;100192.88;;;9.98;79.70
51359;BME280;37448;51.588;7.248;2024-03-23T09:11:59;100199.94;;;9.93;83.44
51359;BME280;37448;51.588;7.248;2024-03-23T09:13:59;100200.25;;;9.79;79.34
51359;BME280;37448;51.588;7.248;2024-03-23T09:16:00;100196.31;;;9.59;77.30
51359;BME280;37448;51.588;7.248;2024-03-23T09:18:01;100196.53;;;9.90;79.77
51359;BME280;37448;51.588;7.248;2024-03-23T09:20:01;100185.94;;;9.98;79.00
51359;BME280;37448;51.588;7.248;2024-03-23T09:22:02;100190.28;;;9.98;79.88
51359;BME280;37448;51.588;7.248;2024-03-23T09:24:02;100187.69;;;9.98;80.73
51359;BME280;37448;51.588;7.248;2024-03-23T09:26:03;100200.03;;;9.88;80.85
51359;BME280;37448;51.588;7.248;2024-03-23T09:28:04;100197.88;;;9.66;79.92
51359;BME280;37448;51.588;7.248;2024-03-23T09:30:05;100192.31;;;9.41;78.16
51359;BME280;37448;51.588;7.248;2024-03-23T09:32:06;100198.34;;;9.41;82.65
51359;BME280;37448;51.588;7.248;2024-03-23T09:34:06;100212.19;;;8.95;79.43
51359;BME280;37448;51.588;7.248;2024-03-23T09:36:07;100216.38;;;9.03;79.22
51359;BME280;37448;51.588;7.248;2024-03-23T09:38:08;100190.72;;;9.33;79.17
51359;BME280;37448;51.588;7.248;2024-03-23T09:40:10;100210.88;;;9.68;79.61
51359;BME280;37448;51.588;7.248;2024-03-23T09:42:11;100206.94;;;9.90;78.00
51359;BME280;37448;51.588;7.248;2024-03-23T09:44:11;100199.34;;;9.80;75.58
51359;BME280;37448;51.588;7.248;2024-03-23T09:46:12;100196.97;;;9.69;78.06
51359;BME280;37448;51.588;7.248;2024-03-23T09:48:12;100196.44;;;9.53;78.53
51359;BME280;37448;51.588;7.248;2024-03-23T09:50:13;100199.28;;;9.39;77.06
51359;BME280;37448;51.588;7.248;2024-03-23T09:52:14;100195.47;;;9.58;75.91
51359;BME280;37448;51.588;7.248;2024-03-23T09:54:14;100190.25;;;9.99;77.60
51359;BME280;37448;51.588;7.248;2024-03-23T09:56:14;100192.97;;;10.32;79.00
51359;BME280;37448;51.588;7.248;2024-03-23T09:58:17;100201.97;;;10.57;75.71
51359;BME280;37448;51.588;7.248;2024-03-23T10:00:18;100206.78;;;10.72;75.57
51359;BME280;37448;51.588;7.248;2024-03-23T10:02:18;100208.31;;;10.81;75.75
51359;BME280;37448;51.588;7.248;2024-03-23T10:04:42;100198.06;;;10.75;75.78
51359;BME280;37448;51.588;7.248;2024-03-23T10:06:44;100195.13;;;10.53;72.14
51359;BME280;37448;51.588;7.248;2024-03-23T10:08:46;100218.63;;;10.50;72.15
51359;BME280;37448;51.588;7.248;2024-03-23T10:10:46;100203.81;;;10.52;70.71
51359;BME280;37448;51.588;7.248;2024-03-23T10:12:48;100183.22;;;10.77;70.35
51359;BME280;37448;51.588;7.248;2024-03-23T10:14:51;100199.78;;;11.09;71.63
51359;BME280;37448;51.588;7.248;2024-03-23T10:16:51;100189.56;;;11.34;75.33
51359;BME280;37448;51.588;7.248;2024-03-23T10:18:52;100183.06;;;11.50;66.13
51359;BME280;37448;51.588;7.248;2024-03-23T10:21:06;100185.00;;;12.03;71.91
51359;BME280;37448;51.588;7.248;2024-03-23T10:23:15;100177.34;;;12.25;71.39
51359;BME280;37448;51.588;7.248;2024-03-23T10:25:16;100181.53;;;12.31;66.55
51359;BME280;37448;51.588;7.248;2024-03-23T10:27:18;100178.78;;;12.36;69.69
51359;BME280;37448;51.588;7.248;2024-03-23T10:29:18;100175.69;;;12.23;63.46
51359;BME280;37448;51.588;7.248;2024-03-23T10:31:19;100178.00;;;12.32;70.58
51359;BME280;37448;51.588;7.248;2024-03-23T10:33:20;100185.44;;;12.44;64.68
51359;BME280;37448;51.588;7.248;2024-03-23T10:35:21;100181.22;;;12.67;67.49
51359;BME280;37448;51.588;7.248;2024-03-23T10:37:22;100167.84;;;12.76;71.03
51359;BME280;37448;51.588;7.248;2024-03-23T10:39:22;100181.84;;;13.02;68.52
51359;BME280;37448;51.588;7.248;2024-03-23T10:41:27;100166.78;;;12.82;67.47
51359;BME280;37448;51.588;7.248;2024-03-23T10:43:30;100195.09;;;12.42;64.98
51359;BME280;37448;51.588;7.248;2024-03-23T10:45:32;100172.41;;;11.87;65.35
51359;BME280;37448;51.588;7.248;2024-03-23T10:47:35;100178.34;;;11.62;62.31
51359;BME280;37448;51.588;7.248;2024-03-23T10:49:35;100181.25;;;11.83;67.01
51359;BME280;37448;51.588;7.248;2024-03-23T10:51:37;100183.03;;;11.81;66.05
51359;BME280;37448;51.588;7.248;2024-03-23T10:53:37;100181.53;;;11.74;67.24
51359;BME280;37448;51.588;7.248;2024-03-23T10:55:38;100177.13;;;11.44;67.38
51359;BME280;37448;51.588;7.248;2024-03-23T10:57:44;100187.50;;;11.46;67.48
51359;BME280;37448;51.588;7.248;2024-03-23T10:59:45;100175.91;;;11.25;66.54
51359;BME280;37448;51.588;7.248;2024-03-23T11:01:56;100173.47;;;11.18;65.83
51359;BME280;37448;51.588;7.248;2024-03-23T11:03:57;100168.56;;;11.06;66.95
51359;BME280;37448;51.588;7.248;2024-03-23T11:05:59;100183.16;;;10.80;64.44
51359;BME280;37448;51.588;7.248;2024-03-23T11:07:59;100194.09;;;10.60;71.08
51359;BME280;37448;51.588;7.248;2024-03-23T11:10:00;100211.75;;;10.09;72.38
51359;BME280;37448;51.588;7.248;2024-03-23T11:14:24;100259.09;;;8.88;79.23
51359;BME280;37448;51.588;7.248;2024-03-23T11:16:26;100256.28;;;8.49;80.52
51359;BME280;37448;51.588;7.248;2024-03-23T11:18:28;100250.78;;;8.07;82.29
51359;BME280;37448;51.588;7.248;2024-03-23T11:20:32;100250.34;;;7.72;84.31
51359;BME280;37448;51.588;7.248;2024-03-23T11:22:45;100242.91;;;7.39;85.16
51359;BME280;37448;51.588;7.248;2024-03-23T11:24:51;100226.56;;;7.34;87.29
51359;BME280;37448;51.588;7.248;2024-03-23T11:26:51;100218.00;;;7.24;87.40
51359;BME280;37448;51.588;7.248;2024-03-23T11:29:08;100219.56;;;7.41;87.43